createdAt,value
2023-12-09T00:01:00.696Z,100808.56
2023-12-09T00:03:34.942Z,100817.69
2023-12-09T00:06:09.213Z,100806.66
2023-12-09T00:08:44.207Z,100807.06
2023-12-09T00:11:20.192Z,100805.47
2023-12-09T00:13:56.283Z,100799.16
2023-12-09T00:16:30.149Z,100801.13
2023-12-09T00:19:03.805Z,100810.16
2023-12-09T00:21:40.424Z,100801.53
2023-12-09T00:24:15.479Z,100811.03
2023-12-09T00:26:49.322Z,100794.00
2023-12-09T00:29:23.053Z,100807.44
2023-12-09T00:31:59.571Z,100805.06
2023-12-09T00:34:33.107Z,100800.38
2023-12-09T00:37:06.804Z,100797.19
2023-12-09T00:39:44.182Z,100793.63
2023-12-09T00:42:17.749Z,100801.16
2023-12-09T00:44:52.184Z,100811.75
2023-12-09T00:47:26.133Z,100797.56
2023-12-09T00:50:01.333Z,100803.50
2023-12-09T00:52:35.288Z,100797.59
2023-12-09T00:55:12.619Z,100799.19
2023-12-09T00:57:46.454Z,100800.03
2023-12-09T01:00:21.293Z,100797.69
2023-12-09T01:02:58.041Z,100789.38
2023-12-09T01:05:31.891Z,100792.94
2023-12-09T01:08:05.457Z,100787.41
2023-12-09T01:10:41.022Z,100786.25
2023-12-09T01:13:14.998Z,100781.91
2023-12-09T01:15:50.898Z,100787.81
2023-12-09T01:18:24.894Z,100783.47
2023-12-09T01:21:01.116Z,100782.31
2023-12-09T01:23:34.700Z,100764.53
2023-12-09T01:26:13.951Z,100755.50
2023-12-09T01:28:53.084Z,100744.09
2023-12-09T01:31:26.515Z,100746.84
2023-12-09T01:34:00.663Z,100747.19
2023-12-09T01:36:34.414Z,100743.31
2023-12-09T01:39:10.036Z,100750.78
2023-12-09T01:41:45.815Z,100750.41
2023-12-09T01:44:22.692Z,100753.53
2023-12-09T01:46:57.825Z,100755.84
2023-12-09T01:49:31.767Z,100754.28
2023-12-09T01:52:14.676Z,100755.78
2023-12-09T01:54:48.876Z,100758.50
2023-12-09T01:57:24.604Z,100762.78
2023-12-09T01:59:58.581Z,100751.28
2023-12-09T02:02:32.766Z,100758.31
2023-12-09T02:05:07.366Z,100749.81
2023-12-09T02:07:41.138Z,100746.19
2023-12-09T02:10:15.574Z,100735.19
2023-12-09T02:13:00.462Z,100739.81
2023-12-09T02:15:38.348Z,100733.53
2023-12-09T02:18:12.989Z,100736.72
2023-12-09T02:20:46.838Z,100722.59
2023-12-09T02:23:22.153Z,100735.59
2023-12-09T02:26:05.557Z,100731.88
2023-12-09T02:28:45.905Z,100728.84
2023-12-09T02:31:25.614Z,100720.56
2023-12-09T02:34:01.503Z,100718.56
2023-12-09T02:36:37.024Z,100697.75
2023-12-09T02:39:15.757Z,100703.09
2023-12-09T02:41:50.597Z,100713.44
2023-12-09T02:44:25.188Z,100687.03
2023-12-09T02:46:59.041Z,100701.75
2023-12-09T02:49:32.666Z,100688.59
2023-12-09T02:52:06.848Z,100709.41
2023-12-09T02:54:41.985Z,100694.56
2023-12-09T02:57:15.104Z,100696.53
2023-12-09T02:59:49.166Z,100699.69
2023-12-09T03:02:22.761Z,100698.09
2023-12-09T03:04:56.565Z,100696.16
2023-12-09T03:07:30.319Z,100685.50
2023-12-09T03:10:05.867Z,100689.78
2023-12-09T03:12:39.546Z,100694.00
2023-12-09T03:15:13.114Z,100684.13
2023-12-09T03:17:47.065Z,100679.03
2023-12-09T03:20:22.254Z,100687.22
2023-12-09T03:22:56.276Z,100668.75
2023-12-09T03:25:31.369Z,100675.50
2023-12-09T03:28:06.230Z,100677.97
2023-12-09T03:30:39.963Z,100661.03
2023-12-09T03:33:13.485Z,100668.94
2023-12-09T03:35:47.512Z,100661.81
2023-12-09T03:38:21.183Z,100650.72
2023-12-09T03:40:56.776Z,100645.63
2023-12-09T03:43:30.392Z,100646.13
2023-12-09T03:46:03.959Z,100644.56
2023-12-09T03:48:37.565Z,100647.44
2023-12-09T03:51:11.233Z,100632.09
2023-12-09T03:53:45.704Z,100635.19
2023-12-09T03:56:22.026Z,100636.03
2023-12-09T03:58:55.712Z,100644.28
2023-12-09T04:01:29.154Z,100631.25
2023-12-09T04:04:02.646Z,100636.84
2023-12-09T04:06:35.996Z,100614.78
2023-12-09T04:09:10.487Z,100612.88
2023-12-09T04:11:45.731Z,100626.56
2023-12-09T04:14:19.473Z,100627.84
2023-12-09T04:16:52.975Z,100612.94
2023-12-09T04:19:26.619Z,100608.97
2023-12-09T04:22:00.570Z,100603.84
2023-12-09T04:24:34.124Z,100604.59
2023-12-09T04:27:09.583Z,100593.59
2023-12-09T04:29:43.905Z,100603.78
2023-12-09T04:32:17.267Z,100586.59
2023-12-09T04:34:51.195Z,100594.38
2023-12-09T04:37:25.718Z,100589.31
2023-12-09T04:40:00.094Z,100588.41
2023-12-09T04:42:35.591Z,100581.78
2023-12-09T04:45:10.536Z,100587.66
2023-12-09T04:47:44.563Z,100586.09
2023-12-09T04:50:18.838Z,100584.16
2023-12-09T04:52:52.381Z,100591.63
2023-12-09T04:55:26.197Z,100587.28
2023-12-09T04:58:01.154Z,100580.25
2023-12-09T05:00:34.840Z,100571.16
2023-12-09T05:03:08.891Z,100567.50
2023-12-09T05:05:42.342Z,100559.34
2023-12-09T05:08:16.101Z,100563.47
2023-12-09T05:10:52.288Z,100562.69
2023-12-09T05:13:27.972Z,100562.00
2023-12-09T05:16:01.473Z,100560.47
2023-12-09T05:18:36.371Z,100556.44
2023-12-09T05:21:10.749Z,100560.38
2023-12-09T05:23:44.447Z,100567.09
2023-12-09T05:26:24.994Z,100559.59
2023-12-09T05:29:00.703Z,100556.25
2023-12-09T05:31:34.849Z,100550.47
2023-12-09T05:34:08.936Z,100539.88
2023-12-09T05:36:44.093Z,100541.84
2023-12-09T05:39:18.040Z,100535.41
2023-12-09T05:41:51.416Z,100529.13
2023-12-09T05:44:26.846Z,100527.13
2023-12-09T05:47:00.481Z,100520.09
2023-12-09T05:49:34.173Z,100519.25
2023-12-09T05:52:08.494Z,100520.34
2023-12-09T05:54:43.098Z,100510.47
2023-12-09T05:57:16.773Z,100505.47
2023-12-09T05:59:51.736Z,100505.44
2023-12-09T06:02:26.215Z,100503.03
2023-12-09T06:04:59.983Z,100501.50
2023-12-09T06:07:33.629Z,100500.03
2023-12-09T06:10:08.871Z,100497.97
2023-12-09T06:12:43.171Z,100480.81
2023-12-09T06:15:19.391Z,100485.97
2023-12-09T06:17:53.079Z,100486.72
2023-12-09T06:20:26.728Z,100477.66
2023-12-09T06:23:00.180Z,100485.88
2023-12-09T06:25:33.538Z,100456.88
2023-12-09T06:28:07.604Z,100439.59
2023-12-09T06:30:42.318Z,100426.31
2023-12-09T06:33:15.822Z,100433.38
2023-12-09T06:35:49.164Z,100411.41
2023-12-09T06:38:22.348Z,100403.59
2023-12-09T06:40:55.561Z,100387.50
2023-12-09T06:43:29.087Z,100378.88
2023-12-09T06:46:03.888Z,100379.28
2023-12-09T06:48:39.063Z,100383.19
2023-12-09T06:51:16.998Z,100394.97
2023-12-09T06:53:50.313Z,100386.28
2023-12-09T06:56:24.104Z,100375.34
2023-12-09T06:58:57.514Z,100375.34
2023-12-09T07:01:32.824Z,100377.72
2023-12-09T07:04:10.577Z,100377.78
2023-12-09T07:06:44.416Z,100369.47
2023-12-09T07:09:18.508Z,100379.28
2023-12-09T07:12:01.619Z,100370.59
2023-12-09T07:14:36.789Z,100360.88
2023-12-09T07:17:14.350Z,100360.84
2023-12-09T07:19:49.075Z,100359.25
2023-12-09T07:22:25.132Z,100348.22
2023-12-09T07:25:00.250Z,100333.03
2023-12-09T07:27:34.218Z,100339.28
2023-12-09T07:30:09.322Z,100329.44
2023-12-09T07:32:44.808Z,100333.78
2023-12-09T07:35:19.359Z,100326.31
2023-12-09T07:37:53.083Z,100336.13
2023-12-09T07:40:26.767Z,100331.44
2023-12-09T07:43:05.592Z,100337.72
2023-12-09T07:45:39.329Z,100343.19
2023-12-09T07:48:14.576Z,100346.00
2023-12-09T07:50:48.365Z,100339.72
2023-12-09T07:53:38.317Z,100341.69
2023-12-09T07:56:35.337Z,100331.09
2023-12-09T07:59:10.597Z,100329.13
2023-12-09T08:01:58.820Z,100329.88
2023-12-09T08:04:39.077Z,100333.75
2023-12-09T08:07:12.775Z,100322.03
2023-12-09T08:09:55.338Z,100319.66
2023-12-09T08:12:29.387Z,100307.13
2023-12-09T08:15:03.271Z,100305.53
2023-12-09T08:17:36.862Z,100300.00
2023-12-09T08:20:36.990Z,100289.41
2023-12-09T08:23:10.441Z,100285.88
2023-12-09T08:25:45.047Z,100283.50
2023-12-09T08:28:18.516Z,100286.69
2023-12-09T08:30:52.263Z,100267.88
2023-12-09T08:33:26.025Z,100254.56
2023-12-09T08:36:01.479Z,100244.31
2023-12-09T08:38:34.841Z,100230.97
2023-12-09T08:41:08.615Z,100227.88
2023-12-09T08:43:41.978Z,100213.75
2023-12-09T08:46:15.625Z,100204.28
2023-12-09T08:48:49.937Z,100201.19
2023-12-09T08:51:25.126Z,100192.16
2023-12-09T08:53:58.993Z,100189.41
2023-12-09T08:56:32.962Z,100191.34
2023-12-09T08:59:09.179Z,100187.03
2023-12-09T09:01:42.594Z,100198.41
2023-12-09T09:04:15.907Z,100199.59
2023-12-09T09:06:50.838Z,100188.22
2023-12-09T09:09:28.659Z,100193.34
2023-12-09T09:12:02.602Z,100192.56
2023-12-09T09:14:37.523Z,100180.75
2023-12-09T09:17:11.756Z,100167.41
2023-12-09T09:19:45.736Z,100148.13
2023-12-09T09:22:20.506Z,100137.94
2023-12-09T09:24:53.833Z,100138.38
2023-12-09T09:27:28.008Z,100126.59
2023-12-09T09:30:01.654Z,100123.47
2023-12-09T09:32:35.095Z,100110.09
2023-12-09T09:35:09.718Z,100086.97
2023-12-09T09:37:46.972Z,100068.50
2023-12-09T09:40:22.035Z,100079.84
2023-12-09T09:42:59.740Z,100076.38
2023-12-09T09:45:33.462Z,100064.53
2023-12-09T09:48:07.960Z,100050.38
2023-12-09T09:50:43.335Z,100058.25
2023-12-09T09:53:22.760Z,100042.53
2023-12-09T09:55:57.706Z,100033.09
2023-12-09T09:58:33.076Z,100022.00
2023-12-09T10:01:07.245Z,100016.09
2023-12-09T10:03:41.429Z,99997.75
2023-12-09T10:06:15.863Z,100007.00
2023-12-09T10:08:51.244Z,99986.56
2023-12-09T10:11:24.650Z,99969.75
2023-12-09T10:13:58.308Z,99975.25
2023-12-09T10:16:34.403Z,99974.09
2023-12-09T10:19:11.273Z,99957.53
2023-12-09T10:21:44.917Z,99947.22
2023-12-09T10:24:20.211Z,99931.81
2023-12-09T10:26:53.613Z,99920.22
2023-12-09T10:29:27.056Z,99905.34
2023-12-09T10:32:02.505Z,99898.34
2023-12-09T10:34:36.763Z,99884.25
2023-12-09T10:37:10.638Z,99873.31
2023-12-09T10:39:47.196Z,99862.09
2023-12-09T10:42:24.430Z,99846.59
2023-12-09T10:45:09.344Z,99815.19
2023-12-09T10:47:45.098Z,99795.31
2023-12-09T10:50:18.984Z,99795.31
2023-12-09T10:52:52.321Z,99792.13
2023-12-09T10:55:29.099Z,99788.94
2023-12-09T10:58:03.983Z,99771.63
2023-12-09T11:00:38.838Z,99757.81
2023-12-09T11:03:12.597Z,99750.91
2023-12-09T11:05:52.632Z,99741.03
2023-12-09T11:08:29.384Z,99721.44
2023-12-09T11:11:06.632Z,99705.81
2023-12-09T11:13:45.676Z,99691.53
2023-12-09T11:16:22.581Z,99681.47
2023-12-09T11:18:57.254Z,99672.81
2023-12-09T11:21:31.251Z,99666.13
2023-12-09T11:24:04.594Z,99655.41
2023-12-09T11:26:39.341Z,99641.25
2023-12-09T11:29:13.997Z,99630.84
2023-12-09T11:31:51.517Z,99627.06
2023-12-09T11:34:26.063Z,99607.53
2023-12-09T11:37:01.145Z,99599.41
2023-12-09T11:39:34.604Z,99596.38
2023-12-09T11:42:10.407Z,99587.03
2023-12-09T11:44:44.822Z,99586.31
2023-12-09T11:47:20.495Z,99580.19
2023-12-09T11:49:55.662Z,99568.72
2023-12-09T11:52:29.197Z,99549.53
2023-12-09T11:55:03.330Z,99556.00
2023-12-09T11:57:38.270Z,99535.69
2023-12-09T12:00:12.818Z,99527.69
2023-12-09T12:02:46.460Z,99518.09
2023-12-09T12:05:19.939Z,99508.63
2023-12-09T12:07:53.289Z,99493.22
2023-12-09T12:10:26.614Z,99478.59
2023-12-09T12:13:03.528Z,99470.84
2023-12-09T12:15:36.805Z,99469.16
2023-12-09T12:18:10.274Z,99455.63
2023-12-09T12:20:44.230Z,99436.53
2023-12-09T12:23:26.407Z,99424.72
2023-12-09T12:26:06.509Z,99413.59
2023-12-09T12:28:41.455Z,99396.47
2023-12-09T12:31:15.027Z,99382.56
2023-12-09T12:33:48.457Z,99370.63
2023-12-09T12:36:22.519Z,99340.97
2023-12-09T12:38:57.348Z,99339.34
2023-12-09T12:41:31.493Z,99326.09
2023-12-09T12:44:07.590Z,99314.09
2023-12-09T12:46:41.444Z,99310.56
2023-12-09T12:49:15.348Z,99286.28
2023-12-09T12:51:51.216Z,99277.13
2023-12-09T12:54:24.776Z,99273.59
2023-12-09T12:57:00.424Z,99258.06
2023-12-09T12:59:36.730Z,99246.56
2023-12-09T13:02:10.936Z,99227.97
2023-12-09T13:04:46.340Z,99203.38
2023-12-09T13:07:19.813Z,99191.38
2023-12-09T13:09:53.176Z,99189.91
2023-12-09T13:12:27.543Z,99160.28
2023-12-09T13:15:02.839Z,99163.38
2023-12-09T13:17:36.810Z,99164.44
2023-12-09T13:20:11.324Z,99160.69
2023-12-09T13:22:47.234Z,99161.69
2023-12-09T13:25:20.719Z,99135.31
2023-12-09T13:27:54.498Z,99128.38
2023-12-09T13:30:30.026Z,99089.88
2023-12-09T13:33:04.068Z,99086.09
2023-12-09T13:35:37.515Z,99073.19
2023-12-09T13:38:11.036Z,99065.88
2023-12-09T13:40:47.411Z,99071.41
2023-12-09T13:43:20.741Z,99050.75
2023-12-09T13:45:55.561Z,99029.97
2023-12-09T13:48:29.036Z,99031.00
2023-12-09T13:51:02.458Z,99009.34
2023-12-09T13:53:35.768Z,99007.28
2023-12-09T13:56:09.824Z,99003.84
2023-12-09T13:58:43.024Z,98976.50
2023-12-09T14:01:18.009Z,98974.19
2023-12-09T14:03:51.501Z,98975.13
2023-12-09T14:06:25.869Z,98962.75
2023-12-09T14:08:59.197Z,98951.44
2023-12-09T14:11:32.382Z,98957.09
2023-12-09T14:14:07.738Z,98946.25
2023-12-09T14:16:43.966Z,98945.47
2023-12-09T14:19:18.649Z,98944.03
2023-12-09T14:21:52.153Z,98928.69
2023-12-09T14:24:25.829Z,98930.22
2023-12-09T14:27:00.730Z,98918.13
2023-12-09T14:29:34.562Z,98924.72
2023-12-09T14:32:09.762Z,98911.16
2023-12-09T14:34:43.214Z,98914.38
2023-12-09T14:37:17.083Z,98907.72
2023-12-09T14:39:50.854Z,98909.75
2023-12-09T14:42:24.674Z,98897.31
2023-12-09T14:44:58.379Z,98897.03
2023-12-09T14:47:33.717Z,98888.47
2023-12-09T14:50:08.292Z,98891.22
2023-12-09T14:52:42.899Z,98886.88
2023-12-09T14:55:16.496Z,98888.13
2023-12-09T14:57:50.429Z,98894.47
2023-12-09T15:00:25.071Z,98885.25
2023-12-09T15:03:00.700Z,98886.78
2023-12-09T15:05:34.247Z,98887.25
2023-12-09T15:08:08.765Z,98882.63
2023-12-09T15:10:42.645Z,98887.06
2023-12-09T15:13:16.152Z,98896.44
2023-12-09T15:15:49.973Z,98889.34
2023-12-09T15:18:25.119Z,98890.50
2023-12-09T15:20:58.920Z,98894.59
2023-12-09T15:23:32.761Z,98888.59
2023-12-09T15:26:06.839Z,98876.75
2023-12-09T15:28:40.713Z,98873.81
2023-12-09T15:31:14.208Z,98872.50
2023-12-09T15:33:49.953Z,98885.84
2023-12-09T15:36:24.671Z,98870.59
2023-12-09T15:38:58.325Z,98873.31
2023-12-09T15:41:34.690Z,98877.63
2023-12-09T15:44:08.240Z,98866.41
2023-12-09T15:46:42.939Z,98864.50
2023-12-09T15:49:17.976Z,98868.94
2023-12-09T15:51:53.607Z,98858.59
2023-12-09T15:54:27.029Z,98861.78
2023-12-09T15:57:03.265Z,98858.03
2023-12-09T15:59:37.058Z,98854.41
2023-12-09T16:02:10.806Z,98851.94
2023-12-09T16:04:45.625Z,98859.00
2023-12-09T16:07:18.791Z,98841.63
2023-12-09T16:09:55.179Z,98851.75
2023-12-09T16:12:33.448Z,98848.09
2023-12-09T16:15:08.202Z,98835.72
2023-12-09T16:17:42.686Z,98836.56
2023-12-09T16:20:18.219Z,98844.50
2023-12-09T16:22:51.733Z,98834.69
2023-12-09T16:25:25.122Z,98845.75
2023-12-09T16:27:58.696Z,98839.56
2023-12-09T16:30:32.078Z,98848.91
2023-12-09T16:33:11.843Z,98853.00
2023-12-09T16:35:49.557Z,98850.66
2023-12-09T16:38:22.724Z,98848.47
2023-12-09T16:40:55.804Z,98857.72
2023-12-09T16:43:29.141Z,98852.66
2023-12-09T16:46:02.429Z,98856.44
2023-12-09T16:48:35.695Z,98859.63
2023-12-09T16:51:10.583Z,98859.50
2023-12-09T16:53:43.669Z,98878.25
2023-12-09T16:56:17.683Z,98874.16
2023-12-09T16:58:50.859Z,98874.84
2023-12-09T17:01:24.093Z,98875.75
2023-12-09T17:03:57.309Z,98884.78
2023-12-09T17:06:31.987Z,98888.22
2023-12-09T17:09:05.702Z,98896.84
2023-12-09T17:11:38.934Z,98898.47
2023-12-09T17:14:12.684Z,98887.66
2023-12-09T17:16:46.648Z,98897.03
2023-12-09T17:19:19.981Z,98893.06
2023-12-09T17:21:55.057Z,98901.66
2023-12-09T17:24:28.318Z,98904.16
2023-12-09T17:27:01.555Z,98910.44
2023-12-09T17:29:34.717Z,98921.69
2023-12-09T17:32:08.524Z,98926.56
2023-12-09T17:34:41.677Z,98945.44
2023-12-09T17:37:16.214Z,98932.06
2023-12-09T17:39:49.588Z,98952.28
2023-12-09T17:42:22.866Z,98943.66
2023-12-09T17:44:56.650Z,98958.50
2023-12-09T17:47:32.794Z,98973.28
2023-12-09T17:50:07.198Z,98984.84
2023-12-09T17:52:42.149Z,98987.63
2023-12-09T17:55:15.540Z,98980.41
2023-12-09T17:57:49.145Z,98997.28
2023-12-09T18:00:22.352Z,99004.53
2023-12-09T18:02:56.186Z,99017.31
2023-12-09T18:05:29.723Z,99023.16
2023-12-09T18:08:09.168Z,99024.63
2023-12-09T18:10:42.906Z,99036.75
2023-12-09T18:13:16.328Z,99026.84
2023-12-09T18:15:50.731Z,99021.59
2023-12-09T18:18:24.425Z,99042.19
2023-12-09T18:20:57.784Z,99045.91
2023-12-09T18:23:32.477Z,99049.03
2023-12-09T18:26:06.113Z,99046.09
2023-12-09T18:28:39.877Z,99050.84
2023-12-09T18:31:13.648Z,99068.94
2023-12-09T18:33:47.022Z,99065.56
2023-12-09T18:36:21.484Z,99073.13
2023-12-09T18:38:56.372Z,99080.00
2023-12-09T18:41:29.700Z,99088.47
2023-12-09T18:44:04.273Z,99088.50
2023-12-09T18:46:37.703Z,99093.44
2023-12-09T18:49:12.445Z,99100.00
2023-12-09T18:51:45.874Z,99106.44
2023-12-09T18:54:20.522Z,99108.94
2023-12-09T18:56:54.011Z,99113.19
2023-12-09T18:59:27.670Z,99114.41
2023-12-09T19:02:09.150Z,99112.72
2023-12-09T19:05:51.141Z,99137.31
2023-12-09T19:08:47.556Z,99142.44
2023-12-09T19:11:22.174Z,99135.94
2023-12-09T19:13:55.728Z,99133.09
2023-12-09T19:16:29.173Z,99133.69
2023-12-09T19:19:03.100Z,99145.94
2023-12-09T19:21:38.698Z,99150.53
2023-12-09T19:24:12.189Z,99157.69
2023-12-09T19:26:47.463Z,99166.31
2023-12-09T19:29:20.678Z,99166.22
2023-12-09T19:31:53.930Z,99172.56
2023-12-09T19:34:31.225Z,99191.75
2023-12-09T19:37:05.192Z,99190.59
2023-12-09T19:39:39.669Z,99197.00
2023-12-09T19:42:14.790Z,99210.19
2023-12-09T19:44:48.182Z,99203.03
2023-12-09T19:47:21.635Z,99214.75
2023-12-09T19:49:54.979Z,99208.91
2023-12-09T19:52:29.726Z,99210.28
2023-12-09T19:55:03.175Z,99210.94
2023-12-09T19:57:38.282Z,99214.31
2023-12-09T20:00:12.668Z,99216.91
2023-12-09T20:02:47.866Z,99227.47
2023-12-09T20:05:23.228Z,99228.84
2023-12-09T20:07:57.124Z,99222.66
2023-12-09T20:10:30.842Z,99220.09
2023-12-09T20:13:07.644Z,99233.22
2023-12-09T20:15:46.553Z,99218.41
2023-12-09T20:21:44.496Z,99241.84
2023-12-09T20:24:27.485Z,99236.44
2023-12-09T20:27:03.836Z,99268.47
2023-12-09T20:29:38.879Z,99263.34
2023-12-09T20:32:12.847Z,99261.09
2023-12-09T20:34:48.529Z,99281.06
2023-12-09T20:37:21.983Z,99275.38
2023-12-09T20:39:58.364Z,99291.63
2023-12-09T20:42:31.944Z,99290.88
2023-12-09T20:45:08.414Z,99301.28
2023-12-09T20:47:42.508Z,99302.47
2023-12-09T20:50:16.586Z,99302.53
2023-12-09T20:52:49.887Z,99308.03
2023-12-09T20:55:23.207Z,99317.97
2023-12-09T20:57:56.946Z,99320.16
2023-12-09T21:00:31.660Z,99329.81
2023-12-09T21:03:06.163Z,99322.22
2023-12-09T21:05:39.535Z,99324.38
2023-12-09T21:08:12.904Z,99334.69
2023-12-09T21:10:46.567Z,99331.94
2023-12-09T21:13:19.981Z,99341.75
2023-12-09T21:15:54.578Z,99340.41
2023-12-09T21:18:28.473Z,99353.59
2023-12-09T21:21:01.613Z,99355.84
2023-12-09T21:23:34.819Z,99366.38
2023-12-09T21:26:08.341Z,99366.44
2023-12-09T21:28:42.014Z,99382.13
2023-12-09T21:31:16.970Z,99389.16
2023-12-09T21:33:50.968Z,99400.22
2023-12-09T21:36:24.412Z,99408.78
2023-12-09T21:38:58.206Z,99411.19
2023-12-09T21:41:31.999Z,99407.31
2023-12-09T21:44:06.254Z,99405.19
2023-12-09T21:46:42.767Z,99409.91
2023-12-09T21:49:16.188Z,99421.75
2023-12-09T21:51:49.655Z,99414.56
2023-12-09T21:54:23.304Z,99415.84
2023-12-09T21:56:56.844Z,99434.97
2023-12-09T21:59:30.526Z,99429.72
2023-12-09T22:02:05.871Z,99437.47
2023-12-09T22:04:39.180Z,99442.97
2023-12-09T22:07:12.391Z,99430.19
2023-12-09T22:09:45.732Z,99438.75
2023-12-09T22:12:19.046Z,99425.16
2023-12-09T22:14:52.651Z,99447.00
2023-12-09T22:17:27.312Z,99468.41
2023-12-09T22:20:01.038Z,99439.41
2023-12-09T22:22:41.164Z,99466.84
2023-12-09T22:25:17.736Z,99480.13
2023-12-09T22:27:51.413Z,99465.34
2023-12-09T22:30:24.898Z,99478.59
2023-12-09T22:32:59.886Z,99484.00
2023-12-09T22:35:34.235Z,99469.13
2023-12-09T22:38:07.352Z,99483.13
2023-12-09T22:40:40.842Z,99486.63
2023-12-09T22:43:14.020Z,99489.16
2023-12-09T22:45:47.261Z,99509.72
2023-12-09T22:48:22.128Z,99496.09
2023-12-09T22:50:55.843Z,99491.19
2023-12-09T22:53:29.205Z,99503.63
2023-12-09T22:56:12.737Z,99491.78
2023-12-09T22:58:47.965Z,99497.09
2023-12-09T23:01:23.777Z,99494.44
2023-12-09T23:03:58.607Z,99502.19
2023-12-09T23:06:31.894Z,99506.00
2023-12-09T23:09:05.830Z,99516.19
2023-12-09T23:11:38.981Z,99517.97
2023-12-09T23:14:13.396Z,99507.41
2023-12-09T23:16:47.164Z,99521.44
2023-12-09T23:19:21.952Z,99517.13
2023-12-09T23:21:55.863Z,99516.56
2023-12-09T23:24:29.388Z,99525.50
2023-12-09T23:27:02.943Z,99530.91
2023-12-09T23:29:36.213Z,99537.94
2023-12-09T23:32:12.390Z,99534.84
2023-12-09T23:34:47.699Z,99534.03
2023-12-09T23:37:21.403Z,99542.88
2023-12-09T23:39:54.797Z,99535.84
2023-12-09T23:42:28.766Z,99549.66
2023-12-09T23:45:02.099Z,99541.50
2023-12-09T23:47:35.465Z,99556.09
2023-12-09T23:50:11.669Z,99542.31
2023-12-09T23:52:46.822Z,99540.66
2023-12-09T23:55:20.114Z,99562.19
2023-12-09T23:57:53.608Z,99553.09
